Time;durP1;ratioP1;P1;durP2;ratioP2;P2;SDS_P1;SDS_P2;PMS_P1;PMS_P2;Temp;Humidity;BMP_temperature;BMP_pressure;BME280_temperature;BME280_humidity;BME280_pressure;Samples;Min_cycle;Max_cycle;Signal;HPM_P1;HPM_P2
2023/06/10 00:02:05;;;;;;;3.63;3.42;;;;;;;;;;5064920;28;20055;-85
2023/06/10 00:04:31;;;;;;;3.55;3.30;;;;;;;;;;5071510;28;20037;-81
2023/06/10 00:06:57;;;;;;;4.00;3.10;;;;;;;;;;5080325;28;20044;-83
2023/06/10 00:09:24;;;;;;;2.80;2.63;;;;;;;;;;5066048;28;20040;-83
2023/06/10 00:11:50;;;;;;;3.65;3.35;;;;;;;;;;5054118;28;20049;-81
2023/06/10 00:14:17;;;;;;;8.55;3.35;;;;;;;;;;5069742;28;20025;-84
2023/06/10 00:16:44;;;;;;;3.30;3.10;;;;;;;;;;5073254;28;20029;-84
2023/06/10 00:19:13;;;;;;;3.72;3.42;;;;;;;;;;5070716;28;20045;-81
2023/06/10 00:21:44;;;;;;;4.03;3.63;;;;;;;;;;5074628;28;20056;-83
2023/06/10 00:24:11;;;;;;;3.40;3.10;;;;;;;;;;5051786;28;20072;-79
2023/06/10 00:26:39;;;;;;;5.13;4.13;;;;;;;;;;5064410;28;20420;-82
2023/06/10 00:29:05;;;;;;;6.80;3.40;;;;;;;;;;5049585;28;20527;-82
2023/06/10 00:31:32;;;;;;;3.58;3.33;;;;;;;;;;5061091;28;20051;-81
2023/06/10 00:33:58;;;;;;;6.63;3.75;;;;;;;;;;5020989;28;20048;-84
2023/06/10 00:36:25;;;;;;;4.03;3.72;;;;;;;;;;5052292;28;20474;-83
2023/06/10 00:38:50;;;;;;;3.92;3.53;;;;;;;;;;5077276;28;20055;-81
2023/06/10 00:41:16;;;;;;;5.95;3.85;;;;;;;;;;5057933;28;20646;-82
2023/06/10 00:43:44;;;;;;;4.93;3.90;;;;;;;;;;5039531;28;20042;-82
2023/06/10 00:46:11;;;;;;;3.97;3.50;;;;;;;;;;5022788;28;20041;-83
2023/06/10 00:48:38;;;;;;;4.30;3.22;;;;;;;;;;5033746;28;20042;-82
2023/06/10 00:51:04;;;;;;;4.15;3.85;;;;;;;;;;5060311;28;20049;-83
2023/06/10 00:53:30;;;;;;;4.35;3.83;;;;;;;;;;5045607;28;20042;-82
2023/06/10 00:55:56;;;;;;;4.65;3.42;;;;;;;;;;5050548;28;20375;-81
2023/06/10 00:58:23;;;;;;;4.15;3.80;;;;;;;;;;5043435;28;20073;-83
2023/06/10 01:00:49;;;;;;;8.07;3.70;;;;;;;;;;5049755;28;20070;-82
2023/06/10 01:03:17;;;;;;;3.90;3.63;;;;;;;;;;5048321;28;20038;-82
2023/06/10 01:05:43;;;;;;;4.15;3.85;;;;;;;;;;5054949;28;20112;-82
2023/06/10 01:08:15;;;;;;;5.22;3.50;;;;;;;;;;5041250;28;20050;-83
2023/06/10 01:10:41;;;;;;;4.35;3.75;;;;;;;;;;5037125;28;20052;-82
2023/06/10 01:13:11;;;;;;;3.83;3.53;;;;;;;;;;5037999;28;20099;-82
2023/06/10 01:15:37;;;;;;;3.33;3.03;;;;;;;;;;5036575;28;20581;-82
2023/06/10 01:18:09;;;;;;;4.07;3.60;;;;;;;;;;5064474;28;20164;-82
2023/06/10 01:20:39;;;;;;;4.35;3.90;;;;;;;;;;5055809;28;20042;-83
2023/06/10 01:23:06;;;;;;;6.05;3.58;;;;;;;;;;5061402;28;20102;-83
2023/06/10 01:25:36;;;;;;;3.70;3.33;;;;;;;;;;5044544;28;20520;-82
2023/06/10 01:28:05;;;;;;;3.55;3.25;;;;;;;;;;5042003;28;20049;-81
2023/06/10 01:30:33;;;;;;;3.50;3.20;;;;;;;;;;5060466;28;20049;-82
2023/06/10 01:32:59;;;;;;;4.72;3.22;;;;;;;;;;5032148;28;20041;-81
2023/06/10 01:35:26;;;;;;;3.90;3.60;;;;;;;;;;5055612;28;20419;-83
2023/06/10 01:37:53;;;;;;;3.33;3.13;;;;;;;;;;5060855;28;20025;-79
2023/06/10 01:40:19;;;;;;;3.50;3.20;;;;;;;;;;5060972;28;20057;-82
2023/06/10 01:42:46;;;;;;;3.20;3.00;;;;;;;;;;5062493;28;20054;-84
2023/06/10 01:45:12;;;;;;;3.72;3.42;;;;;;;;;;5042678;28;20104;-81
2023/06/10 01:47:38;;;;;;;3.63;3.30;;;;;;;;;;5036215;28;20045;-84
2023/06/10 01:50:05;;;;;;;5.82;3.00;;;;;;;;;;5042861;28;20055;-83
2023/06/10 01:52:32;;;;;;;3.22;3.00;;;;;;;;;;5047531;28;20425;-82
2023/06/10 01:54:58;;;;;;;6.68;3.00;;;;;;;;;;5023384;28;20038;-82
2023/06/10 01:57:24;;;;;;;3.70;3.40;;;;;;;;;;5032535;28;20053;-82
2023/06/10 01:59:50;;;;;;;3.05;2.78;;;;;;;;;;5037212;28;20088;-82
2023/06/10 02:02:16;;;;;;;3.63;3.30;;;;;;;;;;5038458;28;20041;-83
2023/06/10 02:04:42;;;;;;;3.80;3.00;;;;;;;;;;5042873;28;20064;-82
2023/06/10 02:07:08;;;;;;;4.05;3.38;;;;;;;;;;5057568;28;20501;-83
2023/06/10 02:09:35;;;;;;;6.97;3.33;;;;;;;;;;5043141;28;20056;-83
2023/06/10 02:12:02;;;;;;;5.70;3.30;;;;;;;;;;5039081;28;20427;-83
2023/06/10 02:14:28;;;;;;;4.53;3.67;;;;;;;;;;5038383;28;20064;-81
2023/06/10 02:16:57;;;;;;;6.22;3.30;;;;;;;;;;5022988;28;20068;-84
2023/06/10 02:19:25;;;;;;;3.50;3.25;;;;;;;;;;5060629;28;20501;-83
2023/06/10 02:21:51;;;;;;;5.70;3.17;;;;;;;;;;5045830;28;20146;-80
2023/06/10 02:24:17;;;;;;;3.47;3.17;;;;;;;;;;5039979;28;20045;-82
2023/06/10 02:26:43;;;;;;;3.78;3.47;;;;;;;;;;5044413;28;20090;-84
2023/06/10 02:29:09;;;;;;;4.18;3.45;;;;;;;;;;5061024;28;20029;-83
2023/06/10 02:31:35;;;;;;;5.90;3.45;;;;;;;;;;5057404;28;20195;-83
2023/06/10 02:34:02;;;;;;;3.22;3.03;;;;;;;;;;5029320;28;20026;-83
2023/06/10 02:36:30;;;;;;;4.78;3.17;;;;;;;;;;5034132;28;20335;-82
2023/06/10 02:38:56;;;;;;;3.67;3.10;;;;;;;;;;5047049;28;20040;-81
2023/06/10 02:41:23;;;;;;;6.60;3.50;;;;;;;;;;5025422;28;20065;-83
2023/06/10 02:43:51;;;;;;;8.30;3.10;;;;;;;;;;5018714;28;20047;-81
2023/06/10 02:46:17;;;;;;;3.00;2.80;;;;;;;;;;5033107;28;20109;-81
2023/06/10 02:48:45;;;;;;;5.68;4.20;;;;;;;;;;5019214;28;20038;-81
2023/06/10 02:51:13;;;;;;;4.72;3.45;;;;;;;;;;5013840;28;20536;-81
2023/06/10 02:53:42;;;;;;;3.45;3.15;;;;;;;;;;5030900;28;20094;-81
2023/06/10 02:56:12;;;;;;;3.28;2.92;;;;;;;;;;5031387;28;20069;-78
2023/06/10 02:58:38;;;;;;;3.88;2.75;;;;;;;;;;5042494;28;20071;-82
2023/06/10 03:01:06;;;;;;;3.40;3.10;;;;;;;;;;5021176;28;20042;-84
2023/06/10 03:03:43;;;;;;;3.25;3.05;;;;;;;;;;5036750;28;20049;-82
2023/06/10 03:06:14;;;;;;;5.03;3.10;;;;;;;;;;5015587;28;20040;-81
2023/06/10 03:08:40;;;;;;;5.50;3.10;;;;;;;;;;5043488;28;20442;-82
2023/06/10 03:11:12;;;;;;;9.18;3.30;;;;;;;;;;5018898;28;20048;-80
2023/06/10 03:13:39;;;;;;;5.70;2.95;;;;;;;;;;5059449;28;20052;-84
2023/06/10 03:16:07;;;;;;;4.03;2.92;;;;;;;;;;5023058;28;20048;-84
2023/06/10 03:18:36;;;;;;;2.88;2.53;;;;;;;;;;5048552;28;20057;-82
2023/06/10 03:21:03;;;;;;;5.22;2.72;;;;;;;;;;5035454;28;20056;-84
2023/06/10 03:23:29;;;;;;;3.00;2.80;;;;;;;;;;5029351;28;20172;-84
2023/06/10 03:25:55;;;;;;;2.90;2.70;;;;;;;;;;5042778;28;20053;-83
2023/06/10 03:28:24;;;;;;;4.05;2.70;;;;;;;;;;5049822;28;20021;-86
2023/06/10 03:30:51;;;;;;;6.97;2.95;;;;;;;;;;5060354;28;20043;-86
2023/06/10 03:33:19;;;;;;;3.17;2.65;;;;;;;;;;5060706;28;20025;-85
2023/06/10 03:35:46;;;;;;;4.28;2.28;;;;;;;;;;5049137;28;20041;-85
2023/06/10 03:38:14;;;;;;;2.47;2.28;;;;;;;;;;5046709;28;20100;-83
2023/06/10 03:40:40;;;;;;;3.33;2.28;;;;;;;;;;5011414;28;20128;-83
2023/06/10 03:43:08;;;;;;;2.50;2.30;;;;;;;;;;5048841;28;20026;-84
2023/06/10 03:45:36;;;;;;;2.50;2.30;;;;;;;;;;5028346;28;20046;-82
2023/06/10 03:48:03;;;;;;;3.33;2.50;;;;;;;;;;5048383;28;20076;-84
2023/06/10 03:50:42;;;;;;;3.00;2.47;;;;;;;;;;5035738;28;20093;-83
2023/06/10 03:53:07;;;;;;;5.13;2.20;;;;;;;;;;5051220;28;20057;-84
2023/06/10 03:55:34;;;;;;;2.38;2.20;;;;;;;;;;5046893;28;20514;-83
2023/06/10 03:58:01;;;;;;;2.08;1.98;;;;;;;;;;5047391;28;20049;-82
2023/06/10 04:00:28;;;;;;;4.97;1.83;;;;;;;;;;5049375;28;20047;-84
2023/06/10 04:02:57;;;;;;;3.85;2.35;;;;;;;;;;5047477;28;20049;-84
2023/06/10 04:05:32;;;;;;;2.13;2.03;;;;;;;;;;5028855;28;20065;-82
2023/06/10 04:07:58;;;;;;;6.00;2.40;;;;;;;;;;5043259;28;20069;-82
2023/06/10 04:10:24;;;;;;;5.55;2.45;;;;;;;;;;5039357;28;20513;-83
2023/06/10 04:12:50;;;;;;;4.43;2.00;;;;;;;;;;5039314;28;20045;-82
2023/06/10 04:15:18;;;;;;;2.20;2.10;;;;;;;;;;5024216;28;20050;-84
2023/06/10 04:17:43;;;;;;;2.22;2.13;;;;;;;;;;5047912;28;20057;-85
2023/06/10 04:20:11;;;;;;;1.90;1.80;;;;;;;;;;5047838;28;20107;-85
2023/06/10 04:22:39;;;;;;;1.92;1.77;;;;;;;;;;5031028;28;20072;-84
2023/06/10 04:25:05;;;;;;;2.92;2.70;;;;;;;;;;5049328;28;20049;-83
2023/06/10 04:27:31;;;;;;;3.13;2.00;;;;;;;;;;5044862;28;20068;-80
2023/06/10 04:29:57;;;;;;;2.17;2.00;;;;;;;;;;5046725;28;20045;-85
2023/06/10 04:32:24;;;;;;;2.00;1.90;;;;;;;;;;5030705;28;20077;-84
2023/06/10 04:34:50;;;;;;;3.95;1.70;;;;;;;;;;5032085;28;20045;-86
2023/06/10 04:37:18;;;;;;;1.90;1.80;;;;;;;;;;5039785;28;20322;-85
2023/06/10 04:39:44;;;;;;;4.10;2.42;;;;;;;;;;5057446;28;20085;-86
2023/06/10 04:42:11;;;;;;;1.48;1.48;;;;;;;;;;5057422;28;20041;-80
2023/06/10 04:44:40;;;;;;;1.95;1.73;;;;;;;;;;5041994;28;20080;-85
2023/06/10 04:47:07;;;;;;;1.95;1.85;;;;;;;;;;5059374;28;20028;-86
2023/06/10 04:49:34;;;;;;;2.72;1.85;;;;;;;;;;5055951;28;20045;-85
2023/06/10 04:52:04;;;;;;;4.68;1.90;;;;;;;;;;5039347;28;20113;-87
2023/06/10 04:54:32;;;;;;;2.92;1.83;;;;;;;;;;5055855;28;20075;-81
2023/06/10 04:56:59;;;;;;;3.13;1.90;;;;;;;;;;5057370;28;20064;-85
2023/06/10 04:59:26;;;;;;;3.30;2.35;;;;;;;;;;5071299;28;20128;-86
2023/06/10 05:01:52;;;;;;;2.67;1.80;;;;;;;;;;5053689;28;20389;-83
2023/06/10 05:04:18;;;;;;;1.70;1.60;;;;;;;;;;5052100;28;20060;-84
2023/06/10 05:06:44;;;;;;;4.10;1.67;;;;;;;;;;5044227;28;20052;-83
2023/06/10 05:09:10;;;;;;;1.88;1.77;;;;;;;;;;5049595;28;20033;-86
2023/06/10 05:11:37;;;;;;;1.90;1.80;;;;;;;;;;5055819;28;20053;-86
2023/06/10 05:14:02;;;;;;;1.67;1.58;;;;;;;;;;5049274;28;20064;-82
2023/06/10 05:16:28;;;;;;;5.57;2.10;;;;;;;;;;5039960;28;20073;-83
2023/06/10 05:18:54;;;;;;;2.08;1.88;;;;;;;;;;5047416;28;20633;-82
2023/06/10 05:21:21;;;;;;;1.98;1.73;;;;;;;;;;5051747;28;20053;-84
2023/06/10 05:23:47;;;;;;;2.63;1.90;;;;;;;;;;5040815;28;20033;-85
2023/06/10 05:26:14;;;;;;;2.70;2.08;;;;;;;;;;5030496;28;20049;-83
2023/06/10 05:28:40;;;;;;;1.70;1.60;;;;;;;;;;5049915;28;20030;-85
2023/06/10 05:31:06;;;;;;;1.95;1.80;;;;;;;;;;5029107;28;20044;-85
2023/06/10 05:33:31;;;;;;;2.22;2.03;;;;;;;;;;5024363;28;20068;-82
2023/06/10 05:35:58;;;;;;;2.10;1.90;;;;;;;;;;5064057;28;20056;-85
2023/06/10 05:38:24;;;;;;;2.20;2.08;;;;;;;;;;5036586;28;20038;-84
2023/06/10 05:40:50;;;;;;;2.35;2.05;;;;;;;;;;5044803;28;20053;-85
2023/06/10 05:43:16;;;;;;;2.10;2.00;;;;;;;;;;5036760;28;20049;-85
2023/06/10 05:45:42;;;;;;;6.30;2.10;;;;;;;;;;5050299;28;20018;-86
2023/06/10 05:48:08;;;;;;;3.08;1.90;;;;;;;;;;5046630;28;20048;-84
2023/06/10 05:50:38;;;;;;;2.72;2.25;;;;;;;;;;5049202;28;20085;-85
2023/06/10 05:53:06;;;;;;;2.20;2.00;;;;;;;;;;5051851;28;20045;-86
2023/06/10 05:55:32;;;;;;;2.10;2.00;;;;;;;;;;5054193;28;20045;-84
2023/06/10 05:57:59;;;;;;;2.05;1.90;;;;;;;;;;5036656;28;20052;-82
2023/06/10 06:00:26;;;;;;;5.47;2.20;;;;;;;;;;5039754;28;20054;-89
2023/06/10 06:02:54;;;;;;;2.70;2.30;;;;;;;;;;5496845;22;20143;-79
2023/06/10 06:05:20;;;;;;;2.30;2.20;;;;;;;;;;5053007;28;20045;-82
2023/06/10 06:07:46;;;;;;;2.25;2.00;;;;;;;;;;5047159;28;20063;-86
2023/06/10 06:10:12;;;;;;;2.45;2.00;;;;;;;;;;5053126;28;20045;-80
2023/06/10 06:12:38;;;;;;;4.85;2.00;;;;;;;;;;5074469;28;20045;-86
2023/06/10 06:15:04;;;;;;;2.15;2.00;;;;;;;;;;5074780;28;20049;-86
2023/06/10 06:17:31;;;;;;;4.60;2.25;;;;;;;;;;5057173;28;20041;-83
2023/06/10 06:19:58;;;;;;;3.15;2.30;;;;;;;;;;5055136;28;20020;-84
2023/06/10 06:22:23;;;;;;;3.17;2.45;;;;;;;;;;5070001;28;20069;-88
2023/06/10 06:24:49;;;;;;;2.63;2.42;;;;;;;;;;5066532;28;20611;-84
2023/06/10 06:27:15;;;;;;;3.22;2.10;;;;;;;;;;5065323;28;20041;-83
2023/06/10 06:29:41;;;;;;;4.53;2.10;;;;;;;;;;5061837;28;20072;-83
2023/06/10 06:32:08;;;;;;;3.08;2.10;;;;;;;;;;5070871;28;20033;-85
2023/06/10 06:34:34;;;;;;;2.53;2.17;;;;;;;;;;5615357;22;20427;-83
2023/06/10 06:37:01;;;;;;;6.97;2.10;;;;;;;;;;5197139;22;20060;-87
2023/06/10 06:39:29;;;;;;;4.22;2.08;;;;;;;;;;5041967;28;20021;-85
2023/06/10 06:41:55;;;;;;;2.10;1.90;;;;;;;;;;5148482;23;20040;-84
2023/06/10 06:44:35;;;;;;;5.65;2.92;;;;;;;;;;5196196;22;20076;-77
2023/06/10 06:47:02;;;;;;;5.40;2.28;;;;;;;;;;5498826;22;20077;-87
2023/06/10 06:49:28;;;;;;;2.05;1.95;;;;;;;;;;5012542;28;20045;-80
2023/06/10 06:51:54;;;;;;;4.35;2.08;;;;;;;;;;5013278;28;20040;-80
2023/06/10 06:54:20;;;;;;;1.70;1.60;;;;;;;;;;4997232;28;20506;-80
2023/06/10 06:56:46;;;;;;;1.70;1.60;;;;;;;;;;5031177;28;20045;-79
2023/06/10 06:59:13;;;;;;;1.75;1.65;;;;;;;;;;5030641;28;20057;-77
2023/06/10 07:01:40;;;;;;;1.35;1.35;;;;;;;;;;5030912;28;20123;-78
2023/06/10 07:04:05;;;;;;;1.27;1.20;;;;;;;;;;5030992;28;20037;-77
2023/06/10 07:06:31;;;;;;;2.60;1.63;;;;;;;;;;5015872;28;20441;-78
2023/06/10 07:08:57;;;;;;;1.88;1.55;;;;;;;;;;5043186;28;20037;-77
2023/06/10 07:11:23;;;;;;;1.60;1.50;;;;;;;;;;5010630;28;20203;-78
2023/06/10 07:13:49;;;;;;;1.70;1.60;;;;;;;;;;5025113;28;20045;-78
2023/06/10 07:16:15;;;;;;;3.72;1.70;;;;;;;;;;5030396;28;20061;-77
2023/06/10 07:18:41;;;;;;;4.22;1.83;;;;;;;;;;4996585;28;20038;-78
2023/06/10 07:21:08;;;;;;;2.22;1.80;;;;;;;;;;4996468;28;20045;-78
2023/06/10 07:23:34;;;;;;;1.60;1.50;;;;;;;;;;5028088;28;20133;-78
2023/06/10 07:26:00;;;;;;;1.80;1.70;;;;;;;;;;5007577;28;20132;-78
2023/06/10 07:28:26;;;;;;;3.40;1.50;;;;;;;;;;5024316;28;20139;-80
2023/06/10 07:30:52;;;;;;;1.83;1.73;;;;;;;;;;5020078;28;20051;-80
2023/06/10 07:33:21;;;;;;;1.88;1.63;;;;;;;;;;5014321;28;20128;-78
2023/06/10 07:35:47;;;;;;;2.05;1.60;;;;;;;;;;5012784;28;20041;-76
2023/06/10 07:38:13;;;;;;;4.45;1.40;;;;;;;;;;5030235;28;20133;-78
2023/06/10 07:40:39;;;;;;;3.53;2.38;;;;;;;;;;5030250;28;20045;-76
2023/06/10 07:43:05;;;;;;;6.18;1.73;;;;;;;;;;5014592;28;20045;-78
2023/06/10 07:45:31;;;;;;;1.40;1.38;;;;;;;;;;5007913;28;20043;-78
2023/06/10 07:47:57;;;;;;;1.67;1.50;;;;;;;;;;5028729;28;20464;-79
2023/06/10 07:50:23;;;;;;;1.88;1.60;;;;;;;;;;5029568;28;20048;-79
2023/06/10 07:52:50;;;;;;;2.90;1.60;;;;;;;;;;5012229;28;20414;-80
2023/06/10 07:55:16;;;;;;;3.22;2.92;;;;;;;;;;5029643;28;20068;-79
2023/06/10 07:57:41;;;;;;;4.35;1.90;;;;;;;;;;5031359;28;20068;-79
2023/06/10 08:00:08;;;;;;;1.63;1.52;;;;;;;;;;5034190;28;20037;-79
2023/06/10 08:02:39;;;;;;;1.95;1.42;;;;;;;;;;5015732;28;20045;-78
2023/06/10 08:05:06;;;;;;;1.38;1.25;;;;;;;;;;5029189;28;20102;-76
2023/06/10 08:07:32;;;;;;;2.17;1.50;;;;;;;;;;5015531;28;20208;-78
2023/06/10 08:09:58;;;;;;;1.23;1.20;;;;;;;;;;5033489;28;20124;-79
2023/06/10 08:12:24;;;;;;;1.48;1.38;;;;;;;;;;5033449;28;20053;-80
2023/06/10 08:14:50;;;;;;;2.95;1.55;;;;;;;;;;5015996;28;20041;-79
2023/06/10 08:17:16;;;;;;;1.63;1.40;;;;;;;;;;5033191;28;20060;-79
2023/06/10 08:19:42;;;;;;;3.83;2.40;;;;;;;;;;5033299;28;20553;-79
2023/06/10 08:22:07;;;;;;;6.90;2.28;;;;;;;;;;5033274;28;20231;-79
2023/06/10 08:24:33;;;;;;;2.15;1.90;;;;;;;;;;5136797;22;20054;-77
2023/06/10 08:26:59;;;;;;;3.63;2.35;;;;;;;;;;5013811;28;20042;-77
2023/06/10 08:29:25;;;;;;;1.83;1.60;;;;;;;;;;5013555;28;20038;-77
2023/06/10 08:31:51;;;;;;;2.83;1.20;;;;;;;;;;5013911;28;20085;-77
2023/06/10 08:34:17;;;;;;;1.30;1.30;;;;;;;;;;4996249;28;20041;-77
2023/06/10 08:36:45;;;;;;;1.40;1.30;;;;;;;;;;5027897;28;20053;-77
2023/06/10 08:39:11;;;;;;;2.22;1.63;;;;;;;;;;5032740;28;20099;-77
2023/06/10 08:41:39;;;;;;;3.15;2.30;;;;;;;;;;5015578;28;20050;-77
2023/06/10 08:44:09;;;;;;;1.00;1.00;;;;;;;;;;5003786;28;20072;-77
2023/06/10 08:46:35;;;;;;;2.13;1.17;;;;;;;;;;4992789;28;20104;-76
2023/06/10 08:49:02;;;;;;;2.15;0.98;;;;;;;;;;5012956;28;20125;-77
2023/06/10 08:51:28;;;;;;;1.25;1.20;;;;;;;;;;5012683;28;20096;-77
2023/06/10 08:53:58;;;;;;;1.38;1.27;;;;;;;;;;5013398;28;20438;-76
2023/06/10 08:56:25;;;;;;;2.78;1.52;;;;;;;;;;5020966;28;20078;-76
2023/06/10 08:58:52;;;;;;;2.90;1.35;;;;;;;;;;5020137;28;20057;-77
2023/06/10 09:01:18;;;;;;;1.00;1.00;;;;;;;;;;5007157;28;20046;-78
2023/06/10 09:03:44;;;;;;;1.17;1.08;;;;;;;;;;5012813;28;20128;-78
2023/06/10 09:06:10;;;;;;;3.85;0.95;;;;;;;;;;5012774;28;20041;-78
2023/06/10 09:08:36;;;;;;;1.52;0.98;;;;;;;;;;5004603;28;20034;-77
2023/06/10 09:11:05;;;;;;;3.22;1.20;;;;;;;;;;4978245;28;20573;-76
2023/06/10 09:13:31;;;;;;;2.08;1.17;;;;;;;;;;5012298;28;20140;-79
2023/06/10 09:16:00;;;;;;;1.30;1.30;;;;;;;;;;4995046;28;20402;-77
2023/06/10 09:18:27;;;;;;;4.03;1.10;;;;;;;;;;4995467;28;20099;-77
2023/06/10 09:20:53;;;;;;;1.58;1.10;;;;;;;;;;5012540;28;20057;-77
2023/06/10 09:23:19;;;;;;;1.30;1.30;;;;;;;;;;5010567;28;20069;-78
2023/06/10 09:25:45;;;;;;;1.27;1.27;;;;;;;;;;5011605;28;20116;-76
2023/06/10 09:28:14;;;;;;;1.10;1.10;;;;;;;;;;5012109;28;20132;-76
2023/06/10 09:30:41;;;;;;;1.20;1.10;;;;;;;;;;5005902;28;20065;-77
2023/06/10 09:33:11;;;;;;;2.10;1.90;;;;;;;;;;4993721;28;20049;-74
2023/06/10 09:35:37;;;;;;;;;;;;;;;;;;4994391;28;20045;-77
2023/06/10 09:38:03;;;;;;;1.40;1.30;;;;;;;;;;4998523;28;19975;-76
2023/06/10 09:40:29;;;;;;;2.97;1.20;;;;;;;;;;5002074;28;20052;-76
2023/06/10 09:42:56;;;;;;;1.08;1.08;;;;;;;;;;5018566;28;20097;-77
2023/06/10 09:45:22;;;;;;;1.10;1.10;;;;;;;;;;4982184;28;20061;-78
2023/06/10 09:47:52;;;;;;;1.48;1.08;;;;;;;;;;4975899;28;20046;-77
2023/06/10 09:50:18;;;;;;;1.10;1.10;;;;;;;;;;4992719;28;20103;-78
2023/06/10 09:52:44;;;;;;;0.98;0.98;;;;;;;;;;4974637;28;20042;-78
2023/06/10 09:55:11;;;;;;;2.60;0.82;;;;;;;;;;4990497;28;20042;-78
2023/06/10 09:57:37;;;;;;;1.13;1.00;;;;;;;;;;4990244;28;20634;-77
2023/06/10 10:00:07;;;;;;;1.77;1.63;;;;;;;;;;4990505;28;20074;-77
2023/06/10 10:02:47;;;;;;;2.78;1.65;;;;;;;;;;4991747;28;20316;-78
2023/06/10 10:05:16;;;;;;;3.65;1.30;;;;;;;;;;4991860;28;20049;-77
2023/06/10 10:07:42;;;;;;;1.50;1.40;;;;;;;;;;4975811;28;20054;-78
2023/06/10 10:10:09;;;;;;;2.40;1.55;;;;;;;;;;4991550;28;20073;-77
2023/06/10 10:12:35;;;;;;;5.15;1.27;;;;;;;;;;4975005;28;20038;-77
2023/06/10 10:15:02;;;;;;;2.90;1.20;;;;;;;;;;4992440;28;20530;-77
2023/06/10 10:17:31;;;;;;;1.25;1.17;;;;;;;;;;4993081;28;20096;-79
2023/06/10 10:20:03;;;;;;;1.40;1.30;;;;;;;;;;4991815;28;20038;-78
2023/06/10 10:22:31;;;;;;;1.40;1.30;;;;;;;;;;4992072;28;20058;-77
2023/06/10 10:24:57;;;;;;;0.90;0.90;;;;;;;;;;4991119;28;20148;-77
2023/06/10 10:27:28;;;;;;;1.35;1.27;;;;;;;;;;4975558;28;20140;-78
2023/06/10 10:29:54;;;;;;;1.00;1.00;;;;;;;;;;4997344;28;20034;-77
2023/06/10 10:32:29;;;;;;;4.72;1.10;;;;;;;;;;4999090;28;20066;-77
2023/06/10 10:35:15;;;;;;;1.48;1.33;;;;;;;;;;4998309;28;20042;-78
2023/06/10 10:37:41;;;;;;;1.70;1.60;;;;;;;;;;4999913;28;20511;-78
2023/06/10 10:40:07;;;;;;;1.70;1.60;;;;;;;;;;5001486;28;20046;-77
2023/06/10 10:42:33;;;;;;;1.48;1.42;;;;;;;;;;4983062;28;20085;-77
2023/06/10 10:44:59;;;;;;;1.50;1.40;;;;;;;;;;4984614;28;20042;-77
2023/06/10 10:47:27;;;;;;;6.32;1.20;;;;;;;;;;5002414;28;20050;-77
2023/06/10 10:49:53;;;;;;;1.25;1.25;;;;;;;;;;5001904;28;20060;-79
2023/06/10 10:52:19;;;;;;;2.13;1.08;;;;;;;;;;4998997;28;20585;-78
2023/06/10 10:54:46;;;;;;;1.70;1.38;;;;;;;;;;4998839;28;20046;-78
2023/06/10 10:57:13;;;;;;;1.70;1.40;;;;;;;;;;4999562;28;20048;-77
2023/06/10 10:59:46;;;;;;;1.13;1.10;;;;;;;;;;4999532;28;20042;-78
2023/06/10 11:02:15;;;;;;;5.65;1.65;;;;;;;;;;4981791;28;20050;-77
2023/06/10 11:04:45;;;;;;;1.63;1.25;;;;;;;;;;4998582;28;20102;-76
2023/06/10 11:07:11;;;;;;;3.17;1.65;;;;;;;;;;4982264;28;20042;-77
2023/06/10 11:09:37;;;;;;;4.70;1.80;;;;;;;;;;4982200;28;20396;-78
2023/06/10 11:12:03;;;;;;;1.63;1.50;;;;;;;;;;4999440;28;20534;-77
2023/06/10 11:14:29;;;;;;;1.33;1.23;;;;;;;;;;4996579;28;20108;-78
2023/06/10 11:16:59;;;;;;;1.33;1.17;;;;;;;;;;4996390;28;20050;-78
2023/06/10 11:19:32;;;;;;;1.50;1.40;;;;;;;;;;4991703;28;20503;-78
2023/06/10 11:22:02;;;;;;;2.63;1.48;;;;;;;;;;4974656;28;20050;-77
2023/06/10 11:24:29;;;;;;;1.63;1.45;;;;;;;;;;4970520;28;20046;-78
2023/06/10 11:26:55;;;;;;;1.70;1.60;;;;;;;;;;4972005;28;20055;-77
2023/06/10 11:29:21;;;;;;;1.77;1.67;;;;;;;;;;4989698;28;20038;-78
2023/06/10 11:31:50;;;;;;;1.20;1.20;;;;;;;;;;4973783;28;20049;-76
2023/06/10 11:34:23;;;;;;;3.10;1.30;;;;;;;;;;4989860;28;20077;-78
2023/06/10 11:36:49;;;;;;;1.08;1.00;;;;;;;;;;4991380;28;20141;-77
2023/06/10 11:39:15;;;;;;;2.30;1.60;;;;;;;;;;4991099;28;20058;-77
2023/06/10 11:41:41;;;;;;;1.20;1.20;;;;;;;;;;4990683;28;20062;-78
2023/06/10 11:44:11;;;;;;;1.35;1.30;;;;;;;;;;4991026;28;20398;-77
2023/06/10 11:46:37;;;;;;;2.63;1.35;;;;;;;;;;4990755;28;20083;-78
2023/06/10 11:49:03;;;;;;;2.72;1.40;;;;;;;;;;4990940;28;20073;-78
2023/06/10 11:51:29;;;;;;;1.85;1.75;;;;;;;;;;4990793;28;20054;-77
2023/06/10 11:53:55;;;;;;;2.67;1.55;;;;;;;;;;4990886;28;20046;-76
2023/06/10 11:56:22;;;;;;;4.68;1.75;;;;;;;;;;4990820;28;20426;-77
2023/06/10 11:58:52;;;;;;;4.78;1.40;;;;;;;;;;4989606;28;20503;-78
2023/06/10 12:01:18;;;;;;;;;;;;;;;;;;4991167;28;20046;-76
2023/06/10 12:03:44;;;;;;;1.55;1.30;;;;;;;;;;4990703;28;20321;-78
2023/06/10 12:06:10;;;;;;;2.63;1.60;;;;;;;;;;4974390;28;20046;-76
2023/06/10 12:08:41;;;;;;;1.67;1.60;;;;;;;;;;4995363;28;20396;-78
2023/06/10 12:11:07;;;;;;;;;;;;;;;;;;4979899;28;20054;-77
2023/06/10 12:13:34;;;;;;;2.75;1.35;;;;;;;;;;4996349;28;20437;-78
2023/06/10 12:16:09;;;;;;;2.20;1.60;;;;;;;;;;4996963;28;20042;-77
2023/06/10 12:18:35;;;;;;;4.05;1.25;;;;;;;;;;4994318;28;20090;-76
2023/06/10 12:21:03;;;;;;;2.33;1.30;;;;;;;;;;4962015;28;20523;-77
2023/06/10 12:23:29;;;;;;;1.83;1.50;;;;;;;;;;4994618;28;20058;-78
2023/06/10 12:25:55;;;;;;;5.70;1.55;;;;;;;;;;4992753;28;20160;-76
2023/06/10 12:28:25;;;;;;;4.00;1.63;;;;;;;;;;4976574;28;20058;-78
2023/06/10 12:30:51;;;;;;;7.43;1.40;;;;;;;;;;4994247;28;20046;-78
2023/06/10 12:33:20;;;;;;;5.38;1.90;;;;;;;;;;4997795;28;20042;-78
2023/06/10 12:35:50;;;;;;;2.03;1.87;;;;;;;;;;5005651;28;20123;-77
2023/06/10 12:38:22;;;;;;;6.57;2.53;;;;;;;;;;4978563;28;20031;-78
2023/06/10 12:40:48;;;;;;;3.20;1.50;;;;;;;;;;4992597;28;20050;-76
2023/06/10 12:43:19;;;;;;;2.75;1.55;;;;;;;;;;4994334;28;20527;-77
2023/06/10 12:45:45;;;;;;;4.55;1.45;;;;;;;;;;4976763;28;20584;-78
2023/06/10 12:48:12;;;;;;;1.60;1.50;;;;;;;;;;4994437;28;20100;-78
2023/06/10 12:50:40;;;;;;;5.68;1.30;;;;;;;;;;4992977;28;20133;-78
2023/06/10 12:53:06;;;;;;;6.40;1.40;;;;;;;;;;4977399;28;20336;-78
2023/06/10 12:55:32;;;;;;;1.70;1.60;;;;;;;;;;4980253;28;20535;-77
2023/06/10 12:57:59;;;;;;;2.20;1.80;;;;;;;;;;4964644;28;20530;-77
2023/06/10 13:00:29;;;;;;;4.15;2.42;;;;;;;;;;5003205;28;20080;-78
2023/06/10 13:02:56;;;;;;;1.63;1.52;;;;;;;;;;4982176;28;20486;-79
2023/06/10 13:05:22;;;;;;;3.85;1.38;;;;;;;;;;4993813;28;20046;-78
2023/06/10 13:07:48;;;;;;;5.38;2.00;;;;;;;;;;4976201;28;20080;-78
2023/06/10 13:10:14;;;;;;;2.45;1.60;;;;;;;;;;4993723;28;20046;-79
2023/06/10 13:12:40;;;;;;;1.98;1.77;;;;;;;;;;4993477;28;20045;-78
2023/06/10 13:15:07;;;;;;;2.30;2.00;;;;;;;;;;4994370;28;20081;-78
2023/06/10 13:17:34;;;;;;;4.85;1.80;;;;;;;;;;4994359;28;20098;-77
2023/06/10 13:20:00;;;;;;;2.05;1.52;;;;;;;;;;4995759;28;20137;-77
2023/06/10 13:22:30;;;;;;;2.10;1.48;;;;;;;;;;4993539;28;20057;-78
2023/06/10 13:24:56;;;;;;;1.67;1.50;;;;;;;;;;4993324;28;20105;-78
2023/06/10 13:27:22;;;;;;;5.95;1.58;;;;;;;;;;4993326;28;20086;-78
2023/06/10 13:29:48;;;;;;;1.25;1.20;;;;;;;;;;4975718;28;20125;-79
2023/06/10 13:32:14;;;;;;;1.92;1.50;;;;;;;;;;4975842;28;20129;-77
2023/06/10 13:34:40;;;;;;;1.60;1.50;;;;;;;;;;4991644;28;20035;-77
2023/06/10 13:37:07;;;;;;;3.95;1.70;;;;;;;;;;4993429;28;20078;-78
2023/06/10 13:39:32;;;;;;;2.60;1.70;;;;;;;;;;4992820;28;20066;-77
2023/06/10 13:41:59;;;;;;;6.93;1.60;;;;;;;;;;4975928;28;20054;-78
2023/06/10 13:44:25;;;;;;;1.33;1.25;;;;;;;;;;4975643;28;20042;-79
2023/06/10 13:46:51;;;;;;;1.50;1.40;;;;;;;;;;4975303;28;20046;-78
2023/06/10 13:49:17;;;;;;;4.97;1.60;;;;;;;;;;4992867;28;20076;-78
2023/06/10 13:51:43;;;;;;;3.60;1.60;;;;;;;;;;4975210;28;20543;-79
2023/06/10 13:54:09;;;;;;;2.50;1.80;;;;;;;;;;4975357;28;20419;-78
2023/06/10 13:56:38;;;;;;;1.73;1.63;;;;;;;;;;4975438;28;20077;-78
2023/06/10 13:59:04;;;;;;;4.43;1.88;;;;;;;;;;4975560;28;20545;-79
2023/06/10 14:01:30;;;;;;;3.20;1.48;;;;;;;;;;4992459;28;20046;-79
2023/06/10 14:03:56;;;;;;;1.70;1.60;;;;;;;;;;4991430;28;20075;-78
2023/06/10 14:06:22;;;;;;;2.10;1.73;;;;;;;;;;4991370;28;20653;-78
2023/06/10 14:08:48;;;;;;;4.78;1.85;;;;;;;;;;4974974;28;20053;-78
2023/06/10 14:11:14;;;;;;;1.92;1.60;;;;;;;;;;4991127;28;20511;-78
2023/06/10 14:13:40;;;;;;;1.35;1.27;;;;;;;;;;4992215;28;20133;-79
2023/06/10 14:16:06;;;;;;;2.42;1.30;;;;;;;;;;4991245;28;20129;-78
2023/06/10 14:18:32;;;;;;;1.40;1.30;;;;;;;;;;4992686;28;20054;-79
2023/06/10 14:20:58;;;;;;;3.85;1.80;;;;;;;;;;5005462;28;20078;-76
2023/06/10 14:23:25;;;;;;;1.67;1.58;;;;;;;;;;4994739;28;20070;-78
2023/06/10 14:25:51;;;;;;;1.88;1.77;;;;;;;;;;4992882;28;20092;-79
2023/06/10 14:28:17;;;;;;;2.20;2.00;;;;;;;;;;4992404;28;20046;-78
2023/06/10 14:30:43;;;;;;;1.48;1.40;;;;;;;;;;4990733;28;20050;-78
2023/06/10 14:33:09;;;;;;;1.35;1.35;;;;;;;;;;4974863;28;20121;-79
2023/06/10 14:35:35;;;;;;;2.00;1.80;;;;;;;;;;4991712;28;20058;-79
2023/06/10 14:38:01;;;;;;;1.30;1.30;;;;;;;;;;4992296;28;20549;-79
2023/06/10 14:40:29;;;;;;;3.30;1.85;;;;;;;;;;4991960;28;20054;-78
2023/06/10 14:42:55;;;;;;;1.70;1.60;;;;;;;;;;4974318;28;20479;-77